createdAt,value
2018-07-15T00:02:04.665Z,101886.91
2018-07-15T00:04:33.843Z,101880.59
2018-07-15T00:07:02.962Z,101878.94
2018-07-15T00:09:32.043Z,101881.19
2018-07-15T00:12:01.216Z,101880.78
2018-07-15T00:14:30.598Z,101871.02
2018-07-15T00:16:59.732Z,101876.98
2018-07-15T00:19:28.862Z,101874.58
2018-07-15T00:21:57.952Z,101871.98
2018-07-15T00:24:27.124Z,101878.74
2018-07-15T00:26:56.260Z,101875.38
2018-07-15T00:29:26.344Z,101877.77
2018-07-15T00:31:55.472Z,101875.62
2018-07-15T00:34:24.628Z,101869.17
2018-07-15T00:36:53.733Z,101867.93
2018-07-15T00:39:22.834Z,101872.36
2018-07-15T00:41:51.932Z,101871.50
2018-07-15T00:44:21.039Z,101866.58
2018-07-15T00:46:50.218Z,101868.42
2018-07-15T00:49:19.323Z,101867.93
2018-07-15T00:51:48.406Z,101863.95
2018-07-15T00:54:17.604Z,101864.05
2018-07-15T00:57:09.096Z,101868.49
2018-07-15T00:59:38.191Z,101864.36
2018-07-15T01:02:07.447Z,101863.32
2018-07-15T01:04:36.538Z,101866.58
2018-07-15T01:07:05.708Z,101860.69
2018-07-15T01:09:34.800Z,101859.16
2018-07-15T01:12:03.920Z,101859.16
2018-07-15T01:14:33.016Z,101857.43
2018-07-15T01:17:02.196Z,101859.09
2018-07-15T01:19:31.280Z,101868.11
2018-07-15T01:22:00.389Z,101859.03
2018-07-15T01:24:29.486Z,101856.77
2018-07-15T01:26:58.600Z,101858.23
2018-07-15T01:29:27.778Z,101858.23
2018-07-15T01:31:56.864Z,101858.42
2018-07-15T01:34:25.973Z,101851.59
2018-07-15T01:36:55.059Z,101852.45
2018-07-15T01:39:24.176Z,101852.64
2018-07-15T01:41:53.251Z,101852.78
2018-07-15T01:44:22.483Z,101843.20
2018-07-15T01:46:51.640Z,101842.16
2018-07-15T01:49:20.743Z,101845.52
2018-07-15T01:51:49.834Z,101840.88
2018-07-15T01:54:18.945Z,101838.97
2018-07-15T01:56:48.054Z,101834.84
2018-07-15T01:59:17.152Z,101839.27
2018-07-15T02:01:46.237Z,101838.48
2018-07-15T02:04:15.332Z,101839.27
2018-07-15T02:06:44.429Z,101839.12
2018-07-15T02:09:13.545Z,101830.13
2018-07-15T02:11:42.640Z,101836.87
2018-07-15T02:14:11.710Z,101836.02
2018-07-15T02:16:41.453Z,101838.34
2018-07-15T02:19:10.628Z,101832.67
2018-07-15T02:21:39.754Z,101832.27
2018-07-15T02:24:08.992Z,101835.83
2018-07-15T02:26:38.077Z,101838.64
2018-07-15T02:29:07.360Z,101840.06
2018-07-15T02:31:36.507Z,101838.48
2018-07-15T02:34:07.251Z,101832.31
2018-07-15T02:36:36.399Z,101832.88
2018-07-15T02:39:07.780Z,101826.86
2018-07-15T02:41:37.033Z,101832.09
2018-07-15T02:44:06.645Z,101829.94
2018-07-15T02:46:36.041Z,101825.59
2018-07-15T02:49:05.404Z,101822.39
2018-07-15T02:51:34.661Z,101824.47
2018-07-15T02:54:03.757Z,101820.23
2018-07-15T02:56:32.874Z,101817.84
2018-07-15T02:59:02.091Z,101816.61
2018-07-15T03:01:31.242Z,101819.31
2018-07-15T03:04:00.349Z,101815.93
2018-07-15T03:06:29.489Z,101814.95
2018-07-15T03:08:58.652Z,101813.30
2018-07-15T03:11:27.770Z,101812.08
2018-07-15T03:13:56.867Z,101812.94
2018-07-15T03:16:25.987Z,101809.30
2018-07-15T03:18:55.143Z,101811.14
2018-07-15T03:21:24.218Z,101805.56
2018-07-15T03:23:53.307Z,101808.44
2018-07-15T03:26:41.157Z,101805.88
2018-07-15T03:29:10.282Z,101805.44
2018-07-15T03:31:39.389Z,101802.87
2018-07-15T03:34:08.542Z,101798.27
2018-07-15T03:36:37.886Z,101798.27
2018-07-15T03:39:08.186Z,101793.53
2018-07-15T03:41:37.315Z,101798.68
2018-07-15T03:44:06.903Z,101792.48
2018-07-15T03:46:36.155Z,101787.95
2018-07-15T03:49:05.256Z,101789.30
2018-07-15T03:51:42.710Z,101786.22
2018-07-15T03:54:11.773Z,101788.99
2018-07-15T03:56:40.888Z,101786.67
2018-07-15T03:59:10.072Z,101788.43
2018-07-15T04:01:39.175Z,101775.18
2018-07-15T04:04:08.296Z,101775.18
2018-07-15T04:06:37.389Z,101777.81
2018-07-15T04:09:06.777Z,101775.67
2018-07-15T04:11:36.215Z,101780.89
2018-07-15T04:14:05.427Z,101783.03
2018-07-15T04:16:34.568Z,101776.58
2018-07-15T04:19:03.753Z,101777.52
2018-07-15T04:21:32.891Z,101780.81
2018-07-15T04:24:01.981Z,101782.92
2018-07-15T04:26:31.147Z,101778.67
2018-07-15T04:29:00.265Z,101778.44
2018-07-15T04:31:29.346Z,101780.17
2018-07-15T04:33:58.460Z,101783.21
2018-07-15T04:36:27.631Z,101777.40
2018-07-15T04:38:56.766Z,101776.66
2018-07-15T04:41:25.849Z,101785.94
2018-07-15T04:43:55.112Z,101781.32
2018-07-15T04:46:24.347Z,101779.77
2018-07-15T04:48:53.540Z,101783.41
2018-07-15T04:51:22.643Z,101785.94
2018-07-15T04:53:51.709Z,101779.17
2018-07-15T04:56:20.809Z,101786.11
2018-07-15T04:58:49.906Z,101790.16
2018-07-15T05:01:18.995Z,101792.86
2018-07-15T05:03:48.122Z,101792.86
2018-07-15T05:06:18.063Z,101785.73
2018-07-15T05:08:47.163Z,101788.43
2018-07-15T05:11:16.263Z,101787.95
2018-07-15T05:13:45.546Z,101782.62
2018-07-15T05:16:14.725Z,101784.69
2018-07-15T05:18:43.955Z,101785.94
2018-07-15T05:21:13.039Z,101784.27
2018-07-15T05:23:42.195Z,101784.76
2018-07-15T05:26:11.289Z,101783.23
2018-07-15T05:28:40.407Z,101788.92
2018-07-15T05:31:09.491Z,101784.87
2018-07-15T05:33:38.584Z,101786.52
2018-07-15T05:36:08.695Z,101788.63
2018-07-15T05:38:37.789Z,101792.69
2018-07-15T05:41:06.958Z,101793.41
2018-07-15T05:43:36.051Z,101793.48
2018-07-15T05:46:10.591Z,101798.70
2018-07-15T05:48:39.677Z,101798.70
2018-07-15T05:51:08.891Z,101798.88
2018-07-15T05:53:37.971Z,101796.10
2018-07-15T05:56:07.155Z,101803.16
2018-07-15T05:58:36.319Z,101807.84
2018-07-15T06:01:05.397Z,101807.16
2018-07-15T06:03:34.622Z,101802.93
2018-07-15T06:06:03.856Z,101804.10
2018-07-15T06:08:32.943Z,101807.28
2018-07-15T06:11:02.409Z,101802.93
2018-07-15T06:13:31.497Z,101803.90
2018-07-15T06:16:04.289Z,101802.55
2018-07-15T06:18:33.461Z,101806.12
2018-07-15T06:21:02.560Z,101806.12
2018-07-15T06:23:31.635Z,101811.59
2018-07-15T06:26:00.746Z,101814.59
2018-07-15T06:28:29.840Z,101811.75
2018-07-15T06:30:58.933Z,101809.50
2018-07-15T06:33:28.265Z,101811.88
2018-07-15T06:35:57.447Z,101813.36
2018-07-15T06:38:26.539Z,101812.30
2018-07-15T06:40:55.640Z,101817.94
2018-07-15T06:43:24.715Z,101814.57
2018-07-15T06:45:53.841Z,101819.53
2018-07-15T06:48:22.943Z,101813.00
2018-07-15T06:50:52.065Z,101819.09
2018-07-15T06:53:21.239Z,101818.45
2018-07-15T06:55:55.823Z,101812.52
2018-07-15T06:58:25.055Z,101808.77
2018-07-15T07:00:54.251Z,101812.06
2018-07-15T07:03:23.435Z,101812.75
2018-07-15T07:05:52.515Z,101814.32
2018-07-15T07:08:21.935Z,101806.89
2018-07-15T07:10:51.136Z,101804.89
2018-07-15T07:13:21.254Z,101811.84
2018-07-15T07:15:50.468Z,101805.67
2018-07-15T07:18:19.650Z,101811.30
2018-07-15T07:20:48.960Z,101810.73
2018-07-15T07:23:18.064Z,101813.25
2018-07-15T07:25:47.258Z,101814.53
2018-07-15T07:28:16.450Z,101808.84
2018-07-15T07:30:45.643Z,101809.03
2018-07-15T07:33:14.739Z,101812.81
2018-07-15T07:35:47.386Z,101814.84
2018-07-15T07:38:16.533Z,101813.13
2018-07-15T07:40:45.626Z,101804.85
2018-07-15T07:43:18.387Z,101806.30
2018-07-15T07:45:47.476Z,101806.44
2018-07-15T07:48:16.579Z,101801.48
2018-07-15T07:50:45.696Z,101804.33
2018-07-15T07:53:18.696Z,101803.93
2018-07-15T07:55:48.087Z,101808.38
2018-07-15T07:58:17.248Z,101807.52
2018-07-15T08:00:58.408Z,101805.19
2018-07-15T08:03:27.524Z,101804.89
2018-07-15T08:06:06.426Z,101802.50
2018-07-15T08:08:35.715Z,101798.72
2018-07-15T08:11:04.893Z,101801.70
2018-07-15T08:13:34.123Z,101796.55
2018-07-15T08:16:03.255Z,101801.93
2018-07-15T08:18:32.465Z,101794.55
2018-07-15T08:21:01.770Z,101797.25
2018-07-15T08:23:30.867Z,101792.38
2018-07-15T08:26:00.065Z,101798.80
2018-07-15T08:28:29.373Z,101794.89
2018-07-15T08:31:09.101Z,101800.01
2018-07-15T08:33:38.285Z,101792.24
2018-07-15T08:36:07.564Z,101799.80
2018-07-15T08:38:36.664Z,101798.84
2018-07-15T08:41:05.932Z,101796.31
2018-07-15T08:43:35.076Z,101789.96
2018-07-15T08:46:04.351Z,101791.71
2018-07-15T08:48:36.652Z,101788.89
2018-07-15T08:51:05.850Z,101786.98
2018-07-15T08:53:35.951Z,101790.89
2018-07-15T08:56:05.072Z,101785.06
2018-07-15T08:58:34.172Z,101785.27
2018-07-15T09:01:03.288Z,101787.22
2018-07-15T09:03:32.659Z,101780.86
2018-07-15T09:06:01.764Z,101783.28
2018-07-15T09:08:30.952Z,101782.23
2018-07-15T09:11:00.045Z,101781.16
2018-07-15T09:13:29.155Z,101778.05
2018-07-15T09:15:58.240Z,101779.23
2018-07-15T09:18:27.373Z,101779.81
2018-07-15T09:20:56.596Z,101783.41
2018-07-15T09:23:25.732Z,101781.19
2018-07-15T09:25:54.825Z,101772.84
2018-07-15T09:28:23.928Z,101775.95
2018-07-15T09:30:53.141Z,101765.20
2018-07-15T09:33:22.312Z,101770.14
2018-07-15T09:35:51.408Z,101765.71
2018-07-15T09:38:20.503Z,101767.93
2018-07-15T09:40:49.696Z,101769.49
2018-07-15T09:43:18.808Z,101766.00
2018-07-15T09:45:47.999Z,101769.70
2018-07-15T09:48:17.099Z,101768.06
2018-07-15T09:50:47.945Z,101767.66
2018-07-15T09:53:17.137Z,101767.37
2018-07-15T09:55:46.252Z,101767.95
2018-07-15T09:58:15.329Z,101763.14
2018-07-15T10:00:49.782Z,101758.84
2018-07-15T10:03:18.937Z,101758.06
2018-07-15T10:05:48.209Z,101755.07
2018-07-15T10:08:17.969Z,101752.48
2018-07-15T10:10:47.180Z,101755.77
2018-07-15T10:13:16.276Z,101759.05
2018-07-15T10:15:45.519Z,101759.14
2018-07-15T10:18:14.637Z,101760.13
2018-07-15T10:20:43.749Z,101750.36
2018-07-15T10:23:12.853Z,101752.28
2018-07-15T10:25:42.108Z,101751.42
2018-07-15T10:28:11.732Z,101754.22
2018-07-15T10:30:42.812Z,101748.02
2018-07-15T10:33:12.024Z,101755.77
2018-07-15T10:35:41.281Z,101742.31
2018-07-15T10:38:10.582Z,101746.01
2018-07-15T10:40:39.664Z,101742.92
2018-07-15T10:43:09.800Z,101739.81
2018-07-15T10:45:38.940Z,101742.52
2018-07-15T10:48:08.056Z,101730.54
2018-07-15T10:50:37.145Z,101737.80
2018-07-15T10:53:06.245Z,101733.83
2018-07-15T10:55:35.383Z,101733.45
2018-07-15T10:58:04.573Z,101735.27
2018-07-15T11:00:33.792Z,101734.02
2018-07-15T11:03:02.886Z,101734.97
2018-07-15T11:05:32.080Z,101729.67
2018-07-15T11:08:01.174Z,101720.28
2018-07-15T11:10:30.280Z,101724.34
2018-07-15T11:12:59.479Z,101719.42
2018-07-15T11:15:28.663Z,101720.28
2018-07-15T11:17:57.869Z,101712.66
2018-07-15T11:20:26.949Z,101716.80
2018-07-15T11:22:56.375Z,101715.56
2018-07-15T11:25:25.507Z,101708.30
2018-07-15T11:27:54.709Z,101711.50
2018-07-15T11:30:23.863Z,101712.94
2018-07-15T11:32:53.079Z,101708.88
2018-07-15T11:35:22.235Z,101705.89
2018-07-15T11:37:51.358Z,101705.11
2018-07-15T11:40:20.471Z,101698.75
2018-07-15T11:42:49.550Z,101694.69
2018-07-15T11:45:18.715Z,101696.98
2018-07-15T11:47:47.817Z,101691.58
2018-07-15T11:50:17.096Z,101687.52
2018-07-15T11:52:46.213Z,101686.66
2018-07-15T11:55:15.307Z,101679.02
2018-07-15T11:57:44.672Z,101679.52
2018-07-15T12:00:13.778Z,101670.04
2018-07-15T12:02:42.901Z,101670.13
2018-07-15T12:05:12.009Z,101668.28
2018-07-15T12:07:41.192Z,101669.62
2018-07-15T12:10:10.604Z,101660.65
2018-07-15T12:12:39.710Z,101661.14
2018-07-15T12:15:08.808Z,101661.14
2018-07-15T12:17:37.984Z,101659.78
2018-07-15T12:20:07.103Z,101656.59
2018-07-15T12:22:36.193Z,101653.97
2018-07-15T12:25:05.506Z,101649.45
2018-07-15T12:27:34.607Z,101648.55
2018-07-15T12:30:03.708Z,101644.98
2018-07-15T12:32:32.804Z,101647.69
2018-07-15T12:35:01.956Z,101645.48
2018-07-15T12:37:31.055Z,101640.55
2018-07-15T12:40:00.200Z,101638.71
2018-07-15T12:42:29.302Z,101634.65
2018-07-15T12:44:58.472Z,101635.52
2018-07-15T12:47:27.640Z,101630.96
2018-07-15T12:49:57.670Z,101631.95
2018-07-15T12:52:26.788Z,101624.69
2018-07-15T12:54:55.960Z,101624.69
2018-07-15T12:57:25.063Z,101621.61
2018-07-15T12:59:54.156Z,101616.69
2018-07-15T13:02:42.105Z,101613.20
2018-07-15T13:05:11.626Z,101613.98
2018-07-15T13:07:40.797Z,101610.87
2018-07-15T13:10:09.887Z,101605.09
2018-07-15T13:12:38.980Z,101601.89
2018-07-15T13:15:08.076Z,101601.52
2018-07-15T13:17:37.264Z,101593.77
2018-07-15T13:20:06.371Z,101600.05
2018-07-15T13:22:35.468Z,101594.62
2018-07-15T13:25:04.685Z,101594.62
2018-07-15T13:27:33.765Z,101591.55
2018-07-15T13:30:03.020Z,101592.91
2018-07-15T13:32:32.164Z,101593.40
2018-07-15T13:35:01.266Z,101589.80
2018-07-15T13:37:30.482Z,101588.44
2018-07-15T13:40:00.327Z,101582.17
2018-07-15T13:42:32.567Z,101585.73
2018-07-15T13:45:01.664Z,101585.28
2018-07-15T13:47:30.822Z,101578.97
2018-07-15T13:49:59.932Z,101581.22
2018-07-15T13:52:29.019Z,101576.18
2018-07-15T13:54:58.145Z,101577.05
2018-07-15T13:57:27.312Z,101570.39
2018-07-15T13:59:56.416Z,101572.13
2018-07-15T14:02:25.508Z,101573.09
2018-07-15T14:04:54.599Z,101567.69
2018-07-15T14:07:23.726Z,101569.04
2018-07-15T14:09:52.892Z,101565.84
2018-07-15T14:12:21.991Z,101563.62
2018-07-15T14:14:51.088Z,101567.69
2018-07-15T14:17:20.184Z,101563.23
2018-07-15T14:19:49.327Z,101562.73
2018-07-15T14:22:18.476Z,101556.25
2018-07-15T14:24:47.576Z,101558.01
2018-07-15T14:27:17.665Z,101559.36
2018-07-15T14:29:46.756Z,101554.03
2018-07-15T14:32:15.896Z,101553.17
2018-07-15T14:34:44.985Z,101551.82
2018-07-15T14:37:14.090Z,101554.44
2018-07-15T14:39:43.267Z,101553.09
2018-07-15T14:42:12.468Z,101554.90
2018-07-15T14:44:41.580Z,101558.38
2018-07-15T14:47:16.297Z,101552.97
2018-07-15T14:49:45.436Z,101545.34
2018-07-15T14:52:14.536Z,101551.61
2018-07-15T14:54:43.683Z,101550.27
2018-07-15T14:57:12.778Z,101547.06
2018-07-15T14:59:42.010Z,101547.95
2018-07-15T15:02:11.202Z,101544.27
2018-07-15T15:04:40.315Z,101538.48
2018-07-15T15:07:09.505Z,101535.78
2018-07-15T15:09:38.675Z,101535.29
2018-07-15T15:12:07.782Z,101533.07
2018-07-15T15:14:36.980Z,101533.44
2018-07-15T15:17:06.329Z,101524.46
2018-07-15T15:19:35.467Z,101523.11
2018-07-15T15:22:04.595Z,101521.27
2018-07-15T15:24:33.765Z,101520.10
2018-07-15T15:27:19.636Z,101524.16
2018-07-15T15:29:48.728Z,101517.48
2018-07-15T15:32:17.815Z,101514.41
2018-07-15T15:34:46.904Z,101513.91
2018-07-15T15:37:16.038Z,101511.70
2018-07-15T15:39:45.254Z,101512.56
2018-07-15T15:42:15.388Z,101512.56
2018-07-15T15:44:44.722Z,101506.75
2018-07-15T15:47:13.951Z,101508.88
2018-07-15T15:49:48.914Z,101503.00
2018-07-15T15:52:18.075Z,101503.00
2018-07-15T15:54:47.167Z,101497.09
2018-07-15T15:57:16.255Z,101487.13
2018-07-15T15:59:45.381Z,101495.16
2018-07-15T16:02:14.580Z,101489.62
2018-07-15T16:04:43.875Z,101487.78
2018-07-15T16:07:13.131Z,101481.91
2018-07-15T16:09:42.307Z,101480.06
2018-07-15T16:12:11.403Z,101480.43
2018-07-15T16:14:40.671Z,101473.17
2018-07-15T16:17:09.720Z,101474.92
2018-07-15T16:19:38.855Z,101472.09
2018-07-15T16:22:07.957Z,101475.20
2018-07-15T16:24:37.035Z,101471.23
2018-07-15T16:27:06.163Z,101470.74
2018-07-15T16:29:35.345Z,101470.28
2018-07-15T16:32:04.429Z,101463.97
2018-07-15T16:34:33.536Z,101463.02
2018-07-15T16:37:02.623Z,101456.75
2018-07-15T16:39:31.737Z,101462.04
2018-07-15T16:42:00.819Z,101452.19
2018-07-15T16:44:30.041Z,101453.42
2018-07-15T16:46:59.221Z,101447.64
2018-07-15T16:49:33.723Z,101449.27
2018-07-15T16:52:02.783Z,101449.77
2018-07-15T16:54:31.879Z,101451.89
2018-07-15T16:57:01.247Z,101449.45
2018-07-15T16:59:30.438Z,101446.84
2018-07-15T17:01:59.625Z,101446.34
2018-07-15T17:04:28.830Z,101444.13
2018-07-15T17:06:57.931Z,101441.06
2018-07-15T17:09:27.185Z,101438.44
2018-07-15T17:11:56.281Z,101431.09
2018-07-15T17:14:25.353Z,101440.07
2018-07-15T17:16:54.489Z,101433.39
2018-07-15T17:19:23.607Z,101426.63
2018-07-15T17:21:52.855Z,101424.41
2018-07-15T17:24:21.969Z,101421.21
2018-07-15T17:26:51.291Z,101422.11
2018-07-15T17:29:20.389Z,101427.89
2018-07-15T17:31:49.493Z,101431.95
2018-07-15T17:34:18.596Z,101435.15
2018-07-15T17:36:47.677Z,101434.29
2018-07-15T17:39:16.768Z,101438.44
2018-07-15T17:41:45.877Z,101435.64
2018-07-15T17:44:14.959Z,101435.64
2018-07-15T17:46:44.043Z,101427.98
2018-07-15T17:49:13.295Z,101441.06
2018-07-15T17:51:42.470Z,101443.27
2018-07-15T17:54:11.815Z,101442.50
2018-07-15T17:56:42.618Z,101441.06
2018-07-15T17:59:12.272Z,101442.87
2018-07-15T18:01:41.628Z,101439.80
2018-07-15T18:04:10.799Z,101442.50
2018-07-15T18:06:39.905Z,101447.06
2018-07-15T18:09:08.973Z,101442.99
2018-07-15T18:11:38.083Z,101447.06
2018-07-15T18:14:07.869Z,101446.94
2018-07-15T18:16:36.979Z,101455.55
2018-07-15T18:19:06.101Z,101450.13
2018-07-15T18:21:35.177Z,101455.55
2018-07-15T18:24:04.302Z,101454.19
2018-07-15T18:26:33.583Z,101453.70
2018-07-15T18:29:02.902Z,101460.09
2018-07-15T18:31:32.101Z,101458.75
2018-07-15T18:34:01.585Z,101457.89
2018-07-15T18:36:30.782Z,101466.00
2018-07-15T18:38:59.972Z,101462.04
2018-07-15T18:41:29.233Z,101467.85
2018-07-15T18:43:58.312Z,101463.80
2018-07-15T18:46:27.475Z,101470.92
2018-07-15T18:48:56.579Z,101465.52
2018-07-15T18:51:26.087Z,101464.16
2018-07-15T18:53:55.187Z,101463.39
2018-07-15T18:56:24.377Z,101468.72
2018-07-15T18:58:53.505Z,101469.66
2018-07-15T19:01:22.773Z,101474.22
2018-07-15T19:03:51.871Z,101468.80
2018-07-15T19:06:20.977Z,101471.02
2018-07-15T19:08:50.061Z,101472.87
2018-07-15T19:11:19.140Z,101475.57
2018-07-15T19:13:48.217Z,101475.08
2018-07-15T19:16:17.338Z,101472.00
2018-07-15T19:18:46.437Z,101471.52
2018-07-15T19:21:15.786Z,101470.16
2018-07-15T19:23:44.920Z,101472.87
2018-07-15T19:26:14.537Z,101475.08
2018-07-15T19:28:43.665Z,101478.77
2018-07-15T19:31:12.745Z,101476.06
2018-07-15T19:33:42.037Z,101479.76
2018-07-15T19:36:11.364Z,101478.41
2018-07-15T19:38:40.539Z,101481.57
2018-07-15T19:41:09.653Z,101490.59
2018-07-15T19:43:38.754Z,101495.11
2018-07-15T19:46:07.910Z,101496.45
2018-07-15T19:48:37.031Z,101499.56
2018-07-15T19:51:06.115Z,101506.42
2018-07-15T19:53:35.195Z,101512.70
2018-07-15T19:56:04.409Z,101505.94
2018-07-15T19:58:33.635Z,101519.01
2018-07-15T20:01:02.861Z,101511.84
2018-07-15T20:03:32.100Z,101511.84
2018-07-15T20:06:01.211Z,101514.67
2018-07-15T20:08:30.298Z,101514.17
2018-07-15T20:10:59.420Z,101515.63
2018-07-15T20:13:28.580Z,101514.17
2018-07-15T20:15:57.665Z,101515.53
2018-07-15T20:18:26.772Z,101514.17
2018-07-15T20:20:55.929Z,101519.59
2018-07-15T20:23:25.200Z,101515.63
2018-07-15T20:25:54.326Z,101515.25
2018-07-15T20:28:23.542Z,101518.81
2018-07-15T20:30:52.666Z,101521.52
2018-07-15T20:33:21.753Z,101523.86
2018-07-15T20:35:50.880Z,101522.51
2018-07-15T20:38:19.952Z,101520.66
2018-07-15T20:40:49.041Z,101521.16
2018-07-15T20:43:18.108Z,101518.45
2018-07-15T20:45:47.192Z,101518.45
2018-07-15T20:48:16.340Z,101516.20
2018-07-15T20:50:45.438Z,101514.48
2018-07-15T20:53:14.539Z,101514.48
2018-07-15T20:55:43.624Z,101515.74
2018-07-15T20:58:12.720Z,101518.05
2018-07-15T21:00:41.928Z,101519.89
2018-07-15T21:03:11.007Z,101520.75
2018-07-15T21:05:40.119Z,101516.32
2018-07-15T21:08:09.193Z,101515.83
2018-07-15T21:10:38.303Z,101519.98
2018-07-15T21:13:07.490Z,101510.14
2018-07-15T21:15:36.580Z,101511.77
2018-07-15T21:18:05.708Z,101511.41
2018-07-15T21:20:34.790Z,101510.91
2018-07-15T21:23:03.901Z,101514.11
2018-07-15T21:25:33.181Z,101511.49
2018-07-15T21:28:02.443Z,101506.57
2018-07-15T21:30:31.600Z,101505.98
2018-07-15T21:33:00.668Z,101509.55
2018-07-15T21:35:29.750Z,101506.73
2018-07-15T21:37:58.870Z,101506.36
2018-07-15T21:40:28.184Z,101506.84
2018-07-15T21:42:57.289Z,101505.50
2018-07-15T21:45:26.380Z,101504.63
2018-07-15T21:48:01.000Z,101502.38
2018-07-15T21:50:30.079Z,101498.94
2018-07-15T21:52:59.159Z,101500.30
2018-07-15T21:55:28.244Z,101503.86
2018-07-15T21:57:57.356Z,101505.22
2018-07-15T22:00:26.477Z,101507.92
2018-07-15T22:02:55.618Z,101507.06
2018-07-15T22:05:24.866Z,101495.74
2018-07-15T22:08:05.309Z,101502.79
2018-07-15T22:10:40.815Z,101495.53
2018-07-15T22:13:10.117Z,101496.97
2018-07-15T22:15:39.482Z,101501.93
2018-07-15T22:18:08.605Z,101500.58
2018-07-15T22:20:38.219Z,101493.90
2018-07-15T22:23:07.940Z,101505.00
2018-07-15T22:25:37.076Z,101496.60
2018-07-15T22:28:06.160Z,101495.16
2018-07-15T22:30:35.232Z,101500.45
2018-07-15T22:33:04.557Z,101496.02
2018-07-15T22:35:33.684Z,101497.87
2018-07-15T22:38:09.966Z,101499.41
2018-07-15T22:40:39.132Z,101502.02
2018-07-15T22:43:08.208Z,101502.02
2018-07-15T22:45:37.304Z,101498.05
2018-07-15T22:48:06.412Z,101493.98
2018-07-15T22:50:35.462Z,101493.03
2018-07-15T22:53:04.639Z,101490.82
2018-07-15T22:55:34.829Z,101493.98
2018-07-15T22:58:03.926Z,101490.51
2018-07-15T23:00:33.020Z,101489.92
2018-07-15T23:03:02.105Z,101489.84
2018-07-15T23:05:43.782Z,101485.09
2018-07-15T23:08:12.954Z,101475.25
2018-07-15T23:10:42.034Z,101483.00
2018-07-15T23:13:11.872Z,101480.87
2018-07-15T23:15:41.356Z,101474.11
2018-07-15T23:18:10.452Z,101480.87
2018-07-15T23:20:40.392Z,101473.83
2018-07-15T23:23:10.120Z,101473.13
2018-07-15T23:25:39.223Z,101475.34
2018-07-15T23:28:09.378Z,101472.76
2018-07-15T23:30:39.215Z,101474.98
2018-07-15T23:33:08.823Z,101474.88
2018-07-15T23:35:37.924Z,101482.59
2018-07-15T23:38:07.060Z,101474.48
2018-07-15T23:40:36.186Z,101474.48
2018-07-15T23:43:05.517Z,101471.28
2018-07-15T23:45:35.440Z,101471.00
2018-07-15T23:48:04.571Z,101471.00
2018-07-15T23:50:33.668Z,101469.77
2018-07-15T23:53:02.804Z,101468.02
2018-07-15T23:55:31.868Z,101463.50
2018-07-15T23:58:00.940Z,101472.97
